createdAt,value
2023-05-13T00:00:41.708Z,9.60
2023-05-13T00:01:39.236Z,9.63
2023-05-13T00:02:36.218Z,9.58
2023-05-13T00:03:33.936Z,9.44
2023-05-13T00:04:31.054Z,9.54
2023-05-13T00:05:28.282Z,9.51
2023-05-13T00:06:25.312Z,9.46
2023-05-13T00:07:22.311Z,9.52
2023-05-13T00:08:20.352Z,9.56
2023-05-13T00:09:17.295Z,9.58
2023-05-13T00:10:14.494Z,9.60
2023-05-13T00:11:11.557Z,9.56
2023-05-13T00:12:08.654Z,9.50
2023-05-13T00:13:05.655Z,9.55
2023-05-13T00:14:02.852Z,9.56
2023-05-13T00:14:59.759Z,9.59
2023-05-13T00:15:56.814Z,9.52
2023-05-13T00:16:53.833Z,9.48
2023-05-13T00:17:50.908Z,9.44
2023-05-13T00:18:48.110Z,9.47
2023-05-13T00:19:45.192Z,9.40
2023-05-13T00:20:42.134Z,9.46
2023-05-13T00:21:39.201Z,9.53
2023-05-13T00:22:36.241Z,9.51
2023-05-13T00:23:33.201Z,9.56
2023-05-13T00:24:30.292Z,9.49
2023-05-13T00:25:27.297Z,9.54
2023-05-13T00:26:24.269Z,9.48
2023-05-13T00:27:21.406Z,9.51
2023-05-13T00:28:19.077Z,9.47
2023-05-13T00:29:16.176Z,9.50
2023-05-13T00:30:13.215Z,9.49
2023-05-13T00:31:10.514Z,9.49
2023-05-13T00:32:07.816Z,9.30
2023-05-13T00:33:04.886Z,9.35
2023-05-13T00:34:01.876Z,9.46
2023-05-13T00:34:58.938Z,9.38
2023-05-13T00:35:55.980Z,9.43
2023-05-13T00:36:53.198Z,9.40
2023-05-13T00:37:50.174Z,9.45
2023-05-13T00:38:47.475Z,9.49
2023-05-13T00:39:44.534Z,9.54
2023-05-13T00:40:42.483Z,9.64
2023-05-13T00:41:39.516Z,9.67
2023-05-13T00:42:36.523Z,9.56
2023-05-13T00:43:33.713Z,9.54
2023-05-13T00:44:30.834Z,9.62
2023-05-13T00:45:27.853Z,9.70
2023-05-13T00:46:25.533Z,9.59
2023-05-13T00:47:22.916Z,9.62
2023-05-13T00:48:20.031Z,9.64
2023-05-13T00:49:17.038Z,9.62
2023-05-13T00:50:14.940Z,9.69
2023-05-13T00:51:12.015Z,9.69
2023-05-13T00:52:09.058Z,9.68
2023-05-13T00:53:06.073Z,9.60
2023-05-13T00:54:03.125Z,9.60
2023-05-13T00:55:00.211Z,9.56
2023-05-13T00:55:57.233Z,9.59
2023-05-13T00:56:56.937Z,9.50
2023-05-13T00:57:53.893Z,9.65
2023-05-13T00:58:50.995Z,9.61
2023-05-13T00:59:47.974Z,9.71
2023-05-13T01:01:11.335Z,9.71
2023-05-13T01:02:19.733Z,9.63
2023-05-13T01:03:24.888Z,9.66
2023-05-13T01:04:24.689Z,9.73
2023-05-13T01:05:33.073Z,9.75
2023-05-13T01:06:55.134Z,9.73
2023-05-13T01:07:52.052Z,9.72
2023-05-13T01:09:04.299Z,9.70
2023-05-13T01:10:20.117Z,9.81
2023-05-13T01:11:22.252Z,9.77
2023-05-13T01:12:22.740Z,9.65
2023-05-13T01:13:25.233Z,9.71
2023-05-13T01:14:34.275Z,9.75
2023-05-13T01:15:32.252Z,9.82
2023-05-13T01:16:39.704Z,9.76
2023-05-13T01:17:43.312Z,9.69
2023-05-13T01:18:50.577Z,9.68
2023-05-13T01:19:53.729Z,9.75
2023-05-13T01:20:50.730Z,9.76
2023-05-13T01:21:53.972Z,9.70
2023-05-13T01:22:51.048Z,9.66
2023-05-13T01:23:47.972Z,9.61
2023-05-13T01:24:46.113Z,9.64
2023-05-13T01:25:43.173Z,9.67
2023-05-13T01:26:40.153Z,9.68
2023-05-13T01:27:37.138Z,9.64
2023-05-13T01:28:34.409Z,9.63
2023-05-13T01:29:31.451Z,9.53
2023-05-13T01:30:28.494Z,9.55
2023-05-13T01:31:28.118Z,9.51
2023-05-13T01:32:25.767Z,9.52
2023-05-13T01:33:22.991Z,9.44
2023-05-13T01:34:20.847Z,9.50
2023-05-13T01:35:18.162Z,9.52
2023-05-13T01:36:15.325Z,9.46
2023-05-13T01:37:12.308Z,9.54
2023-05-13T01:38:09.405Z,9.54
2023-05-13T01:39:06.842Z,9.46
2023-05-13T01:40:14.308Z,9.47
2023-05-13T01:41:17.866Z,9.49
2023-05-13T01:42:14.856Z,9.49
2023-05-13T01:43:11.787Z,9.50
2023-05-13T01:44:08.982Z,9.52
2023-05-13T01:45:07.471Z,9.61
2023-05-13T01:46:04.509Z,9.49
2023-05-13T01:47:01.510Z,9.45
2023-05-13T01:47:58.557Z,9.40
2023-05-13T01:48:55.568Z,9.51
2023-05-13T01:49:52.592Z,9.45
2023-05-13T01:50:49.717Z,9.47
2023-05-13T01:51:46.757Z,9.46
2023-05-13T01:52:43.799Z,9.55
2023-05-13T01:53:40.748Z,9.52
2023-05-13T01:54:37.766Z,9.51
2023-05-13T01:55:34.752Z,9.38
2023-05-13T01:56:32.263Z,9.35
2023-05-13T01:57:29.186Z,9.42
2023-05-13T01:58:26.088Z,9.33
2023-05-13T01:59:23.291Z,9.31
2023-05-13T02:00:20.423Z,9.30
2023-05-13T02:01:18.415Z,9.30
2023-05-13T02:02:16.574Z,9.44
2023-05-13T02:03:13.771Z,9.36
2023-05-13T02:04:10.888Z,9.39
2023-05-13T02:05:08.231Z,9.39
2023-05-13T02:06:05.688Z,9.40
2023-05-13T02:07:02.708Z,9.45
2023-05-13T02:07:59.666Z,9.46
2023-05-13T02:08:56.606Z,9.50
2023-05-13T02:09:59.906Z,9.46
2023-05-13T02:11:00.374Z,9.49
2023-05-13T02:11:57.341Z,9.49
2023-05-13T02:12:54.348Z,9.34
2023-05-13T02:13:51.393Z,9.34
2023-05-13T02:14:48.414Z,9.36
2023-05-13T02:15:45.591Z,9.43
2023-05-13T02:16:42.630Z,9.26
2023-05-13T02:17:39.682Z,9.39
2023-05-13T02:18:36.707Z,9.41
2023-05-13T02:19:33.753Z,9.47
2023-05-13T02:20:30.909Z,9.35
2023-05-13T02:21:27.851Z,9.30
2023-05-13T02:22:24.948Z,9.22
2023-05-13T02:23:21.889Z,9.23
2023-05-13T02:24:18.892Z,9.22
2023-05-13T02:25:15.894Z,9.26
2023-05-13T02:26:12.857Z,9.25
2023-05-13T02:27:12.895Z,9.19
2023-05-13T02:28:10.836Z,9.23
2023-05-13T02:31:25.901Z,9.24
2023-05-13T02:32:25.254Z,9.13
2023-05-13T02:33:22.121Z,9.26
2023-05-13T02:34:19.124Z,9.29
2023-05-13T02:35:16.166Z,9.25
2023-05-13T02:36:13.216Z,9.13
2023-05-13T02:37:10.144Z,9.10
2023-05-13T02:38:10.223Z,9.12
2023-05-13T02:39:07.322Z,9.13
2023-05-13T02:40:04.675Z,9.15
2023-05-13T02:41:01.965Z,9.06
2023-05-13T02:42:00.100Z,8.99
2023-05-13T02:42:57.055Z,9.08
2023-05-13T02:43:54.078Z,9.12
2023-05-13T02:44:51.078Z,9.13
2023-05-13T02:45:48.242Z,9.16
2023-05-13T02:46:45.268Z,9.27
2023-05-13T02:47:42.612Z,9.30
2023-05-13T02:48:39.525Z,9.29
2023-05-13T02:49:36.419Z,9.28
2023-05-13T02:50:33.527Z,9.27
2023-05-13T02:51:30.626Z,9.19
2023-05-13T02:52:27.591Z,9.27
2023-05-13T02:53:24.744Z,9.19
2023-05-13T02:54:21.751Z,9.17
2023-05-13T02:55:19.007Z,9.06
2023-05-13T02:56:17.176Z,8.99
2023-05-13T02:57:14.199Z,9.00
2023-05-13T02:58:11.161Z,9.03
2023-05-13T02:59:08.216Z,8.99
2023-05-13T03:00:06.322Z,9.02
2023-05-13T03:01:03.476Z,9.11
2023-05-13T03:02:00.903Z,9.12
2023-05-13T03:02:58.191Z,9.16
2023-05-13T03:03:55.396Z,9.21
2023-05-13T03:04:52.555Z,9.17
2023-05-13T03:05:50.120Z,9.20
2023-05-13T03:06:47.481Z,9.16
2023-05-13T03:07:44.496Z,9.20
2023-05-13T03:08:41.560Z,9.24
2023-05-13T03:09:42.574Z,9.15
2023-05-13T03:10:39.694Z,9.19
2023-05-13T03:11:36.606Z,9.23
2023-05-13T03:12:33.754Z,9.16
2023-05-13T03:13:30.681Z,9.13
2023-05-13T03:14:28.424Z,9.14
2023-05-13T03:15:25.467Z,9.21
2023-05-13T03:16:22.536Z,9.28
2023-05-13T03:17:19.655Z,9.20
2023-05-13T03:18:16.759Z,9.17
2023-05-13T03:19:13.852Z,9.16
2023-05-13T03:20:11.798Z,9.25
2023-05-13T03:21:08.953Z,9.25
2023-05-13T03:22:06.305Z,9.16
2023-05-13T03:23:03.457Z,9.15
2023-05-13T03:24:00.588Z,9.24
2023-05-13T03:24:58.650Z,9.33
2023-05-13T03:25:55.690Z,9.28
2023-05-13T03:26:52.776Z,9.27
2023-05-13T03:27:49.935Z,9.30
2023-05-13T03:28:47.010Z,9.30
2023-05-13T03:29:43.980Z,9.30
2023-05-13T03:30:41.156Z,9.34
2023-05-13T03:31:38.517Z,9.36
2023-05-13T03:32:35.746Z,9.39
2023-05-13T03:33:32.743Z,9.42
2023-05-13T03:34:29.862Z,9.39
2023-05-13T03:35:26.923Z,9.20
2023-05-13T03:36:24.022Z,9.14
2023-05-13T03:37:20.992Z,9.26
2023-05-13T03:38:17.978Z,9.32
2023-05-13T03:39:14.975Z,9.41
2023-05-13T03:40:12.137Z,9.45
2023-05-13T03:41:09.176Z,9.46
2023-05-13T03:42:06.475Z,9.51
2023-05-13T03:43:03.853Z,9.35
2023-05-13T03:44:00.926Z,9.43
2023-05-13T03:44:57.875Z,9.46
2023-05-13T03:45:54.913Z,9.47
2023-05-13T03:46:51.986Z,9.40
2023-05-13T03:47:50.332Z,9.32
2023-05-13T03:48:47.622Z,9.42
2023-05-13T03:49:44.853Z,9.33
2023-05-13T03:50:41.980Z,9.30
2023-05-13T03:51:39.213Z,9.24
2023-05-13T03:52:36.255Z,9.29
2023-05-13T03:53:33.372Z,9.32
2023-05-13T03:54:30.534Z,9.32
2023-05-13T03:55:27.522Z,9.33
2023-05-13T03:56:24.578Z,9.33
2023-05-13T03:57:21.694Z,9.44
2023-05-13T03:58:19.396Z,9.55
2023-05-13T03:59:16.399Z,9.55
2023-05-13T04:00:14.305Z,9.60
2023-05-13T04:01:11.376Z,9.67
2023-05-13T04:02:08.494Z,9.54
2023-05-13T04:03:05.642Z,9.61
2023-05-13T04:04:02.745Z,9.66
2023-05-13T04:04:59.961Z,9.69
2023-05-13T04:05:57.104Z,9.69
2023-05-13T04:06:54.105Z,9.72
2023-05-13T04:07:51.104Z,9.74
2023-05-13T04:08:49.535Z,9.68
2023-05-13T04:09:46.570Z,9.75
2023-05-13T04:10:43.691Z,9.76
2023-05-13T04:11:40.799Z,9.76
2023-05-13T04:12:37.766Z,9.65
2023-05-13T04:13:35.638Z,9.71
2023-05-13T04:14:32.682Z,9.78
2023-05-13T04:15:30.743Z,9.89
2023-05-13T04:16:28.162Z,9.96
2023-05-13T04:17:25.517Z,10.04
2023-05-13T04:18:22.692Z,9.92
2023-05-13T04:19:19.642Z,9.92
2023-05-13T04:20:16.724Z,9.97
2023-05-13T04:21:13.743Z,10.00
2023-05-13T04:22:10.678Z,9.99
2023-05-13T04:23:08.002Z,10.06
2023-05-13T04:24:05.320Z,9.95
2023-05-13T04:25:02.538Z,9.87
2023-05-13T04:25:59.440Z,9.89
2023-05-13T04:26:56.381Z,9.93
2023-05-13T04:27:53.432Z,9.97
2023-05-13T04:28:50.456Z,10.07
2023-05-13T04:29:47.540Z,10.12
2023-05-13T04:30:44.758Z,10.18
2023-05-13T04:31:41.778Z,10.14
2023-05-13T04:32:39.400Z,10.04
2023-05-13T04:33:36.417Z,10.07
2023-05-13T04:34:33.572Z,10.13
2023-05-13T04:35:30.699Z,10.15
2023-05-13T04:36:27.757Z,10.23
2023-05-13T04:37:24.798Z,10.22
2023-05-13T04:38:21.805Z,10.26
2023-05-13T04:39:18.757Z,10.21
2023-05-13T04:40:16.304Z,10.16
2023-05-13T04:41:13.402Z,10.07
2023-05-13T04:42:10.377Z,10.23
2023-05-13T04:43:07.464Z,10.27
2023-05-13T04:44:06.598Z,10.31
2023-05-13T04:45:03.829Z,10.40
2023-05-13T04:46:00.923Z,10.32
2023-05-13T04:46:58.004Z,10.43
2023-05-13T04:47:56.824Z,10.33
2023-05-13T04:48:55.201Z,10.35
2023-05-13T04:49:52.672Z,10.29
2023-05-13T04:50:51.240Z,10.40
2023-05-13T04:51:48.725Z,10.37
2023-05-13T04:52:47.517Z,10.42
2023-05-13T04:53:44.555Z,10.46
2023-05-13T04:54:42.715Z,10.23
2023-05-13T04:55:39.969Z,10.30
2023-05-13T04:56:37.358Z,10.37
2023-05-13T04:57:34.389Z,10.39
2023-05-13T04:58:31.338Z,10.43
2023-05-13T04:59:28.436Z,10.57
2023-05-13T05:00:25.703Z,10.62
2023-05-13T05:01:22.849Z,10.49
2023-05-13T05:02:19.938Z,10.57
2023-05-13T05:03:17.011Z,10.52
2023-05-13T05:04:14.142Z,10.41
2023-05-13T05:05:11.336Z,10.40
2023-05-13T05:06:08.328Z,10.42
2023-05-13T05:07:05.498Z,10.42
2023-05-13T05:08:02.443Z,10.51
2023-05-13T05:08:59.758Z,10.44
2023-05-13T05:09:56.878Z,10.42
2023-05-13T05:10:53.875Z,10.38
2023-05-13T05:11:51.157Z,10.33
2023-05-13T05:12:48.323Z,10.40
2023-05-13T05:13:45.304Z,10.43
2023-05-13T05:14:42.198Z,10.36
2023-05-13T05:15:39.501Z,10.47
2023-05-13T05:16:36.545Z,10.35
2023-05-13T05:17:34.269Z,10.21
2023-05-13T05:18:31.314Z,10.22
2023-05-13T05:19:28.450Z,10.31
2023-05-13T05:20:25.658Z,10.21
2023-05-13T05:21:23.272Z,10.11
2023-05-13T05:22:20.390Z,10.13
2023-05-13T05:23:17.580Z,10.12
2023-05-13T05:24:14.764Z,10.07
2023-05-13T05:25:12.196Z,10.15
2023-05-13T05:26:12.137Z,10.20
2023-05-13T05:27:09.658Z,10.19
2023-05-13T05:28:06.827Z,10.27
2023-05-13T05:29:03.847Z,10.29
2023-05-13T05:30:00.838Z,10.31
2023-05-13T05:30:57.960Z,10.36
2023-05-13T05:31:55.394Z,10.44
2023-05-13T05:32:52.863Z,10.49
2023-05-13T05:33:49.941Z,10.48
2023-05-13T05:34:46.997Z,10.40
2023-05-13T05:35:44.025Z,10.47
2023-05-13T05:36:41.003Z,10.55
2023-05-13T05:37:37.917Z,10.60
2023-05-13T05:38:34.922Z,10.49
2023-05-13T05:39:31.978Z,10.48
2023-05-13T05:40:28.989Z,10.50
2023-05-13T05:41:26.122Z,10.62
2023-05-13T05:42:23.230Z,10.67
2023-05-13T05:43:20.325Z,10.65
2023-05-13T05:44:17.325Z,10.61
2023-05-13T05:45:14.414Z,10.69
2023-05-13T05:46:11.565Z,10.70
2023-05-13T05:47:08.619Z,10.68
2023-05-13T05:48:06.855Z,10.67
2023-05-13T05:49:03.890Z,10.80
2023-05-13T05:50:00.961Z,11.01
2023-05-13T05:50:58.066Z,10.93
2023-05-13T05:51:55.143Z,10.93
2023-05-13T05:52:52.134Z,11.10
2023-05-13T05:53:49.197Z,11.28
2023-05-13T05:54:46.397Z,11.41
2023-05-13T05:55:43.419Z,11.48
2023-05-13T05:56:40.384Z,11.52
2023-05-13T05:57:37.424Z,11.56
2023-05-13T05:58:35.347Z,11.77
2023-05-13T05:59:32.477Z,11.73
2023-05-13T06:00:29.741Z,11.79
2023-05-13T06:01:27.781Z,11.77
2023-05-13T06:02:25.076Z,11.82
2023-05-13T06:03:22.312Z,12.14
2023-05-13T06:04:19.610Z,12.25
2023-05-13T06:05:16.916Z,12.26
2023-05-13T06:06:14.215Z,12.33
2023-05-13T06:07:11.518Z,12.42
2023-05-13T06:08:08.660Z,12.37
2023-05-13T06:09:05.716Z,12.39
2023-05-13T06:10:02.718Z,12.42
2023-05-13T06:11:00.316Z,12.61
2023-05-13T06:11:57.318Z,12.31
2023-05-13T06:12:54.537Z,12.30
2023-05-13T06:13:51.857Z,12.32
2023-05-13T06:14:49.476Z,12.50
2023-05-13T06:15:46.644Z,12.63
2023-05-13T06:16:43.679Z,12.56
2023-05-13T06:17:40.783Z,12.65
2023-05-13T06:18:38.001Z,12.56
2023-05-13T06:19:35.207Z,12.49
2023-05-13T06:20:32.919Z,12.39
2023-05-13T06:21:29.979Z,12.28
2023-05-13T06:22:27.022Z,12.25
2023-05-13T06:23:24.094Z,12.10
2023-05-13T06:24:21.158Z,12.11
2023-05-13T06:25:18.317Z,12.34
2023-05-13T06:26:15.269Z,12.45
2023-05-13T06:27:12.457Z,12.55
2023-05-13T06:28:11.510Z,12.52
2023-05-13T06:29:08.621Z,12.45
2023-05-13T06:30:06.876Z,12.20
2023-05-13T06:31:03.967Z,12.23
2023-05-13T06:32:00.999Z,12.12
2023-05-13T06:33:02.016Z,12.12
2023-05-13T06:33:59.677Z,12.22
2023-05-13T06:34:56.883Z,12.39
2023-05-13T06:35:53.925Z,12.38
2023-05-13T06:36:50.838Z,12.54
2023-05-13T06:37:47.757Z,12.52
2023-05-13T06:38:44.837Z,12.70
2023-05-13T06:39:41.913Z,12.96
2023-05-13T06:40:39.039Z,13.04
2023-05-13T06:41:35.982Z,13.12
2023-05-13T06:42:32.938Z,12.99
2023-05-13T06:43:30.026Z,12.75
2023-05-13T06:44:27.020Z,12.70
2023-05-13T06:45:26.143Z,12.76
2023-05-13T06:46:23.362Z,12.74
2023-05-13T06:47:21.885Z,12.81
2023-05-13T06:48:21.325Z,12.88
2023-05-13T06:49:18.537Z,13.12
2023-05-13T06:50:15.688Z,13.39
2023-05-13T06:51:12.637Z,12.92
2023-05-13T06:52:10.773Z,12.99
2023-05-13T06:53:08.117Z,13.23
2023-05-13T06:54:05.316Z,13.28
2023-05-13T06:55:03.396Z,13.58
2023-05-13T06:56:00.488Z,13.69
2023-05-13T06:56:57.437Z,13.72
2023-05-13T06:57:54.574Z,13.82
2023-05-13T06:58:51.961Z,13.82
2023-05-13T06:59:49.024Z,13.85
2023-05-13T07:00:47.303Z,14.09
2023-05-13T07:01:44.500Z,14.08
2023-05-13T07:02:42.106Z,14.11
2023-05-13T07:03:39.222Z,14.13
2023-05-13T07:04:36.228Z,14.43
2023-05-13T07:05:33.929Z,14.43
2023-05-13T07:06:31.035Z,14.56
2023-05-13T07:07:28.040Z,14.73
2023-05-13T07:08:24.962Z,14.45
2023-05-13T07:09:22.112Z,14.48
2023-05-13T07:10:19.440Z,14.37
2023-05-13T07:11:16.550Z,14.35
2023-05-13T07:12:14.633Z,14.49
2023-05-13T07:13:11.943Z,14.23
2023-05-13T07:14:09.075Z,14.43
2023-05-13T07:15:06.734Z,14.12
2023-05-13T07:16:03.873Z,13.94
2023-05-13T07:17:00.932Z,13.77
2023-05-13T07:17:58.000Z,13.76
2023-05-13T07:18:55.152Z,14.01
2023-05-13T07:19:52.248Z,14.13
2023-05-13T07:20:49.126Z,13.91
2023-05-13T07:21:46.201Z,13.72
2023-05-13T07:22:43.277Z,13.93
2023-05-13T07:23:40.919Z,13.85
2023-05-13T07:24:39.045Z,13.79
2023-05-13T07:25:36.111Z,13.83
2023-05-13T07:26:33.051Z,14.10
2023-05-13T07:27:30.019Z,14.12
2023-05-13T07:28:27.495Z,14.21
2023-05-13T07:29:25.918Z,13.94
2023-05-13T07:30:24.360Z,13.86
2023-05-13T07:31:21.514Z,13.84
2023-05-13T07:32:18.673Z,13.79
2023-05-13T07:33:15.954Z,14.02
2023-05-13T07:34:12.887Z,13.95
2023-05-13T07:35:10.701Z,14.07
2023-05-13T07:36:07.893Z,14.22
2023-05-13T07:37:05.143Z,14.30
2023-05-13T07:38:02.078Z,14.32
2023-05-13T07:38:59.507Z,14.45
2023-05-13T07:39:56.498Z,14.33
2023-05-13T07:40:53.517Z,14.28
2023-05-13T07:41:50.451Z,14.48
2023-05-13T07:42:47.566Z,14.37
2023-05-13T07:43:44.655Z,14.35
2023-05-13T07:44:41.715Z,14.21
2023-05-13T07:45:42.815Z,14.21
2023-05-13T07:46:41.326Z,14.04
2023-05-13T07:47:38.685Z,14.01
2023-05-13T07:48:35.877Z,13.91
2023-05-13T07:49:33.094Z,13.99
2023-05-13T07:50:30.136Z,14.13
2023-05-13T07:51:27.174Z,13.61
2023-05-13T07:52:24.201Z,13.78
2023-05-13T07:53:21.696Z,13.91
2023-05-13T07:54:19.042Z,14.25
2023-05-13T07:55:16.587Z,14.37
2023-05-13T07:56:13.968Z,14.36
2023-05-13T07:57:11.036Z,14.50
2023-05-13T07:58:08.062Z,14.34
2023-05-13T07:59:05.615Z,14.43
2023-05-13T08:00:02.757Z,14.59
2023-05-13T08:00:59.796Z,14.61
2023-05-13T08:01:57.016Z,14.85
2023-05-13T08:02:54.042Z,15.09
2023-05-13T08:03:51.334Z,15.14
2023-05-13T08:04:49.062Z,15.10
2023-05-13T08:05:48.186Z,15.18
2023-05-13T08:06:45.392Z,15.23
2023-05-13T08:07:42.419Z,15.04
2023-05-13T08:08:39.623Z,14.97
2023-05-13T08:09:36.622Z,15.25
2023-05-13T08:10:33.602Z,15.48
2023-05-13T08:11:30.555Z,14.97
2023-05-13T08:12:27.528Z,14.87
2023-05-13T08:13:24.733Z,14.74
2023-05-13T08:14:21.761Z,15.03
2023-05-13T08:15:20.189Z,15.11
2023-05-13T08:16:17.360Z,14.98
2023-05-13T08:17:14.402Z,14.88
2023-05-13T08:18:11.398Z,15.14
2023-05-13T08:19:08.407Z,15.52
2023-05-13T08:20:06.223Z,15.69
2023-05-13T08:21:03.544Z,15.65
2023-05-13T08:22:00.634Z,15.81
2023-05-13T08:22:59.532Z,15.56
2023-05-13T08:23:57.199Z,15.66
2023-05-13T08:24:54.462Z,15.50
2023-05-13T08:25:52.106Z,15.76
2023-05-13T08:26:49.196Z,15.55
2023-05-13T08:27:46.256Z,15.34
2023-05-13T08:28:43.423Z,15.22
2023-05-13T08:29:40.562Z,14.87
2023-05-13T08:30:37.557Z,14.95
2023-05-13T08:31:34.652Z,15.29
2023-05-13T08:32:31.793Z,15.45
2023-05-13T08:33:31.879Z,15.51
2023-05-13T08:34:28.997Z,15.37
2023-05-13T08:35:26.442Z,15.20
2023-05-13T08:36:23.675Z,15.07
2023-05-13T08:37:20.702Z,15.20
2023-05-13T08:38:17.774Z,14.97
2023-05-13T08:39:14.767Z,14.89
2023-05-13T08:40:12.094Z,14.94
2023-05-13T08:41:10.454Z,15.31
2023-05-13T08:42:08.956Z,15.14
2023-05-13T08:43:06.694Z,15.02
2023-05-13T08:44:07.159Z,15.41
2023-05-13T08:45:06.640Z,15.41
2023-05-13T08:46:04.885Z,15.47
2023-05-13T08:47:14.994Z,15.41
2023-05-13T08:48:13.923Z,15.15
2023-05-13T08:49:12.616Z,14.94
2023-05-13T08:50:11.930Z,15.08
2023-05-13T08:51:09.659Z,15.13
2023-05-13T08:52:06.936Z,14.94
2023-05-13T08:53:04.789Z,14.99
2023-05-13T08:54:02.681Z,15.02
2023-05-13T08:55:00.850Z,15.04
2023-05-13T08:55:57.865Z,15.25
2023-05-13T08:56:54.716Z,14.94
2023-05-13T08:57:52.030Z,14.91
2023-05-13T08:58:49.138Z,14.92
2023-05-13T08:59:46.176Z,14.94
2023-05-13T09:00:43.532Z,14.78
2023-05-13T09:01:40.636Z,14.82
2023-05-13T09:02:37.868Z,14.82
2023-05-13T09:03:35.790Z,14.82
2023-05-13T09:04:34.545Z,14.80
2023-05-13T09:05:32.172Z,14.86
2023-05-13T09:06:30.257Z,14.44
2023-05-13T09:07:31.032Z,14.50
2023-05-13T09:08:27.792Z,14.80
2023-05-13T09:09:24.745Z,14.91
2023-05-13T09:10:21.761Z,15.04
2023-05-13T09:11:18.696Z,15.02
2023-05-13T09:12:44.791Z,14.55
2023-05-13T09:13:44.406Z,14.22
2023-05-13T09:14:41.377Z,14.53
2023-05-13T09:15:41.785Z,14.64
2023-05-13T09:16:39.063Z,14.36
2023-05-13T09:17:39.382Z,14.49
2023-05-13T09:18:36.614Z,14.64
2023-05-13T09:19:33.850Z,14.84
2023-05-13T09:20:31.258Z,14.62
2023-05-13T09:21:30.522Z,14.60
2023-05-13T09:22:27.477Z,14.35
2023-05-13T09:23:24.502Z,14.47
2023-05-13T09:24:21.912Z,14.50
2023-05-13T09:25:20.601Z,14.42
2023-05-13T09:26:30.873Z,14.61
2023-05-13T09:27:40.980Z,14.44
2023-05-13T09:28:37.854Z,14.66
2023-05-13T09:29:35.054Z,14.75
2023-05-13T09:30:36.254Z,14.58
2023-05-13T09:31:33.972Z,14.63
2023-05-13T09:32:31.880Z,14.64
2023-05-13T09:33:31.688Z,14.70
2023-05-13T09:34:37.504Z,14.57
2023-05-13T09:35:35.982Z,14.65
2023-05-13T09:36:33.238Z,14.70
2023-05-13T09:37:30.994Z,14.54
2023-05-13T09:38:31.776Z,14.53
2023-05-13T09:39:30.202Z,14.17
2023-05-13T09:40:28.574Z,14.16
2023-05-13T09:41:27.399Z,14.19
2023-05-13T09:42:24.240Z,14.18
2023-05-13T09:43:24.979Z,14.27
2023-05-13T09:44:21.974Z,14.32
2023-05-13T09:45:19.106Z,14.19
2023-05-13T09:46:21.085Z,14.47
2023-05-13T09:47:18.399Z,14.53
2023-05-13T09:48:15.848Z,14.56
2023-05-13T09:49:13.081Z,14.63
2023-05-13T09:50:12.238Z,14.78
2023-05-13T09:51:09.721Z,14.73
2023-05-13T09:52:10.434Z,14.75
2023-05-13T09:53:10.534Z,14.80
2023-05-13T09:54:07.736Z,14.45
2023-05-13T09:55:10.059Z,14.32
2023-05-13T09:56:10.379Z,14.37
2023-05-13T09:57:07.496Z,14.32
2023-05-13T09:58:11.370Z,14.18
2023-05-13T09:59:08.632Z,14.29
2023-05-13T10:00:07.335Z,14.28
2023-05-13T10:01:05.495Z,14.41
2023-05-13T10:02:07.286Z,14.69
2023-05-13T10:03:05.584Z,15.04
2023-05-13T10:04:06.333Z,15.07
2023-05-13T10:05:04.841Z,15.23
2023-05-13T10:06:03.392Z,15.25
2023-05-13T10:07:03.459Z,15.37
2023-05-13T10:08:03.777Z,15.21
2023-05-13T10:09:04.239Z,15.32
2023-05-13T10:10:04.078Z,15.47
2023-05-13T10:11:01.025Z,15.32
2023-05-13T10:11:59.155Z,15.25
2023-05-13T10:12:56.696Z,14.86
2023-05-13T10:13:59.699Z,14.90
2023-05-13T10:14:57.227Z,15.10
2023-05-13T10:15:55.660Z,15.32
2023-05-13T10:16:53.301Z,15.35
2023-05-13T10:17:50.434Z,15.41
2023-05-13T10:18:48.043Z,15.26
2023-05-13T10:19:45.064Z,15.26
2023-05-13T10:20:42.538Z,15.28
2023-05-13T10:21:39.865Z,15.06
2023-05-13T10:22:37.474Z,15.21
2023-05-13T10:23:35.006Z,14.94
2023-05-13T10:24:32.182Z,15.01
2023-05-13T10:25:29.843Z,14.87
2023-05-13T10:26:27.179Z,14.66
2023-05-13T10:27:28.113Z,14.63
2023-05-13T10:28:26.677Z,14.48
2023-05-13T10:29:24.885Z,14.29
2023-05-13T10:30:26.607Z,14.48
2023-05-13T10:31:23.864Z,14.64
2023-05-13T10:32:23.577Z,14.62
2023-05-13T10:33:21.033Z,14.70
2023-05-13T10:34:17.955Z,14.73
2023-05-13T10:35:19.252Z,14.78
2023-05-13T10:36:47.583Z,14.57
2023-05-13T10:38:02.167Z,14.87
2023-05-13T10:39:01.904Z,15.19
2023-05-13T10:40:13.697Z,15.28
2023-05-13T10:41:22.826Z,15.16
2023-05-13T10:42:35.682Z,15.20
2023-05-13T10:43:34.913Z,14.92
2023-05-13T10:44:33.724Z,14.88
2023-05-13T10:45:32.402Z,15.02
2023-05-13T10:46:29.692Z,14.75
2023-05-13T10:47:27.402Z,14.82
2023-05-13T10:48:24.798Z,14.82
2023-05-13T10:49:24.832Z,14.55
2023-05-13T10:50:25.669Z,14.28
2023-05-13T10:51:26.175Z,14.33
2023-05-13T10:52:23.112Z,14.25
2023-05-13T10:53:29.291Z,14.43
2023-05-13T10:54:26.235Z,14.03
2023-05-13T10:55:23.273Z,13.94
2023-05-13T10:56:26.515Z,13.89
2023-05-13T10:57:38.927Z,13.95
2023-05-13T10:58:39.430Z,14.08
2023-05-13T10:59:37.572Z,14.06
2023-05-13T11:00:34.854Z,13.99
2023-05-13T11:01:35.053Z,14.04
2023-05-13T11:02:32.707Z,14.21
2023-05-13T11:03:30.560Z,14.19
2023-05-13T11:04:27.670Z,14.03
2023-05-13T11:05:24.537Z,13.80
2023-05-13T11:06:29.605Z,13.98
2023-05-13T11:07:29.395Z,13.95
2023-05-13T11:08:46.806Z,13.92
2023-05-13T11:09:49.484Z,13.92
2023-05-13T11:10:55.291Z,13.82
2023-05-13T11:11:57.053Z,13.73
2023-05-13T11:13:21.801Z,13.82
2023-05-13T11:14:23.313Z,13.89
2023-05-13T11:15:23.092Z,13.74
2023-05-13T11:16:21.040Z,13.78
2023-05-13T11:17:20.934Z,13.66
2023-05-13T11:18:17.994Z,13.65
2023-05-13T11:19:27.561Z,13.55
2023-05-13T11:20:25.017Z,13.51
2023-05-13T11:21:36.740Z,13.40
2023-05-13T11:22:34.436Z,13.59
2023-05-13T11:23:34.455Z,13.64
2023-05-13T11:24:31.500Z,13.52
2023-05-13T11:25:28.519Z,13.46
2023-05-13T11:26:25.805Z,13.38
2023-05-13T11:27:22.793Z,13.49
2023-05-13T11:28:58.646Z,13.44
2023-05-13T11:29:56.518Z,13.43
2023-05-13T11:30:57.727Z,13.40
2023-05-13T11:31:59.241Z,13.56
2023-05-13T11:33:02.539Z,13.73
2023-05-13T11:34:13.531Z,13.88
2023-05-13T11:35:10.220Z,13.93
2023-05-13T11:36:08.935Z,13.77
2023-05-13T11:37:05.721Z,13.83
2023-05-13T11:38:03.960Z,14.00
2023-05-13T11:39:12.618Z,14.09
2023-05-13T11:40:10.996Z,14.01
2023-05-13T11:41:07.989Z,13.76
2023-05-13T11:42:08.134Z,13.69
2023-05-13T11:43:08.031Z,13.73
2023-05-13T11:44:06.255Z,13.79
2023-05-13T11:45:03.415Z,13.91
2023-05-13T11:46:01.515Z,13.86
2023-05-13T11:46:59.941Z,13.89
2023-05-13T11:47:57.568Z,13.87
2023-05-13T11:48:54.574Z,13.88
2023-05-13T11:49:51.857Z,13.84
2023-05-13T11:50:50.578Z,14.01
2023-05-13T11:51:47.537Z,14.18
2023-05-13T11:52:44.753Z,14.23
2023-05-13T11:53:41.734Z,14.20
2023-05-13T11:54:42.429Z,14.14
2023-05-13T11:55:39.881Z,14.24
2023-05-13T11:56:37.244Z,14.24
2023-05-13T11:57:34.553Z,14.21
2023-05-13T11:58:31.423Z,14.23
2023-05-13T11:59:35.877Z,14.28
2023-05-13T12:00:38.857Z,14.27
2023-05-13T12:01:35.742Z,14.02
2023-05-13T12:02:37.961Z,13.67
2023-05-13T12:03:35.512Z,13.66
2023-05-13T12:04:32.602Z,13.82
2023-05-13T12:05:30.418Z,13.71
2023-05-13T12:06:27.677Z,13.60
2023-05-13T12:07:25.817Z,13.43
2023-05-13T12:08:23.771Z,13.44
2023-05-13T12:09:23.705Z,13.51
2023-05-13T12:10:20.557Z,13.55
2023-05-13T12:11:17.516Z,13.50
2023-05-13T12:12:14.655Z,13.54
2023-05-13T12:13:11.670Z,13.44
2023-05-13T12:14:09.519Z,13.39
2023-05-13T12:15:11.824Z,13.45
2023-05-13T12:16:09.120Z,13.65
2023-05-13T12:17:06.025Z,13.80
2023-05-13T12:18:03.391Z,13.79
2023-05-13T12:19:04.614Z,13.86
2023-05-13T12:20:09.922Z,13.77
2023-05-13T12:21:17.476Z,13.48
2023-05-13T12:22:14.378Z,13.50
2023-05-13T12:23:14.339Z,13.52
2023-05-13T12:24:21.771Z,13.55
2023-05-13T12:25:37.683Z,13.48
2023-05-13T12:26:34.552Z,13.54
2023-05-13T12:27:31.739Z,13.69
2023-05-13T12:28:29.197Z,13.65
2023-05-13T12:29:26.144Z,13.62
2023-05-13T12:30:23.353Z,13.74
2023-05-13T12:31:20.212Z,13.65
2023-05-13T12:32:17.321Z,13.59
2023-05-13T12:33:16.073Z,13.42
2023-05-13T12:34:13.016Z,13.58
2023-05-13T12:35:14.613Z,13.65
2023-05-13T12:36:26.191Z,13.65
2023-05-13T12:37:25.835Z,13.82
2023-05-13T12:38:24.768Z,13.94
2023-05-13T12:39:21.855Z,13.82
2023-05-13T12:40:18.855Z,13.55
2023-05-13T12:41:15.795Z,13.54
2023-05-13T12:42:17.039Z,13.60
2023-05-13T12:43:14.553Z,13.71